sensor_id;sensor_type;location;lat;lon;timestamp;P1;durP1;ratioP1;P2;durP2;ratioP2
34242;SDS011;20504;43.214;27.920;2023-03-01T00:01:21;12.05;;;6.72;;
34242;SDS011;20504;43.214;27.920;2023-03-01T00:03:52;10.40;;;6.35;;
34242;SDS011;20504;43.214;27.920;2023-03-01T00:06:18;10.10;;;6.00;;
34242;SDS011;20504;43.214;27.920;2023-03-01T00:08:44;10.13;;;6.35;;
34242;SDS011;20504;43.214;27.920;2023-03-01T00:11:12;8.67;;;5.37;;
34242;SDS011;20504;43.214;27.920;2023-03-01T00:13:42;8.68;;;5.43;;
34242;SDS011;20504;43.214;27.920;2023-03-01T00:16:13;8.32;;;5.85;;
34242;SDS011;20504;43.214;27.920;2023-03-01T00:18:46;8.38;;;5.78;;
34242;SDS011;20504;43.214;27.920;2023-03-01T00:21:11;8.67;;;5.77;;
34242;SDS011;20504;43.214;27.920;2023-03-01T00:23:37;11.23;;;5.25;;
34242;SDS011;20504;43.214;27.920;2023-03-01T00:26:06;8.73;;;6.03;;
34242;SDS011;20504;43.214;27.920;2023-03-01T00:28:37;10.45;;;6.32;;
34242;SDS011;20504;43.214;27.920;2023-03-01T00:31:06;8.73;;;6.23;;
34242;SDS011;20504;43.214;27.920;2023-03-01T00:33:33;10.63;;;6.60;;
34242;SDS011;20504;43.214;27.920;2023-03-01T00:35:59;14.03;;;7.70;;
34242;SDS011;20504;43.214;27.920;2023-03-01T00:38:24;11.32;;;7.82;;
34242;SDS011;20504;43.214;27.920;2023-03-01T00:40:50;15.53;;;9.87;;
34242;SDS011;20504;43.214;27.920;2023-03-01T00:43:16;12.17;;;7.77;;
34242;SDS011;20504;43.214;27.920;2023-03-01T00:45:41;10.37;;;6.80;;
34242;SDS011;20504;43.214;27.920;2023-03-01T00:48:06;11.30;;;7.40;;
34242;SDS011;20504;43.214;27.920;2023-03-01T00:50:32;11.13;;;7.63;;
34242;SDS011;20504;43.214;27.920;2023-03-01T00:52:58;8.60;;;6.57;;
34242;SDS011;20504;43.214;27.920;2023-03-01T00:55:23;8.00;;;5.67;;
34242;SDS011;20504;43.214;27.920;2023-03-01T00:57:49;9.00;;;6.47;;
34242;SDS011;20504;43.214;27.920;2023-03-01T01:00:14;8.97;;;4.17;;
34242;SDS011;20504;43.214;27.920;2023-03-01T01:02:40;7.97;;;5.53;;
34242;SDS011;20504;43.214;27.920;2023-03-01T01:05:06;8.37;;;5.47;;
34242;SDS011;20504;43.214;27.920;2023-03-01T01:07:32;10.80;;;6.28;;
34242;SDS011;20504;43.214;27.920;2023-03-01T01:09:58;9.85;;;5.65;;
34242;SDS011;20504;43.214;27.920;2023-03-01T01:12:23;11.83;;;6.10;;
34242;SDS011;20504;43.214;27.920;2023-03-01T01:14:48;10.73;;;6.00;;
34242;SDS011;20504;43.214;27.920;2023-03-01T01:17:14;11.90;;;6.67;;
34242;SDS011;20504;43.214;27.920;2023-03-01T01:19:39;12.97;;;6.20;;
34242;SDS011;20504;43.214;27.920;2023-03-01T01:22:05;14.50;;;7.07;;
34242;SDS011;20504;43.214;27.920;2023-03-01T01:24:31;12.47;;;6.70;;
34242;SDS011;20504;43.214;27.920;2023-03-01T01:26:56;12.80;;;7.67;;
34242;SDS011;20504;43.214;27.920;2023-03-01T01:29:22;8.90;;;6.47;;
34242;SDS011;20504;43.214;27.920;2023-03-01T01:31:47;11.10;;;7.33;;
34242;SDS011;20504;43.214;27.920;2023-03-01T01:34:14;14.17;;;9.50;;
34242;SDS011;20504;43.214;27.920;2023-03-01T01:36:41;13.25;;;8.15;;
34242;SDS011;20504;43.214;27.920;2023-03-01T01:39:07;15.57;;;8.70;;
34242;SDS011;20504;43.214;27.920;2023-03-01T01:41:36;15.18;;;9.90;;
34242;SDS011;20504;43.214;27.920;2023-03-01T01:44:13;13.33;;;8.83;;
34242;SDS011;20504;43.214;27.920;2023-03-01T01:51:49;15.70;;;9.55;;
34242;SDS011;20504;43.214;27.920;2023-03-01T01:54:25;15.20;;;9.27;;
34242;SDS011;20504;43.214;27.920;2023-03-01T01:57:02;15.07;;;9.60;;
34242;SDS011;20504;43.214;27.920;2023-03-01T01:59:31;18.38;;;10.98;;
34242;SDS011;20504;43.214;27.920;2023-03-01T02:02:02;18.92;;;11.35;;
34242;SDS011;20504;43.214;27.920;2023-03-01T02:04:29;17.23;;;10.80;;
34242;SDS011;20504;43.214;27.920;2023-03-01T02:07:01;17.60;;;10.88;;
34242;SDS011;20504;43.214;27.920;2023-03-01T02:09:28;16.25;;;10.82;;
34242;SDS011;20504;43.214;27.920;2023-03-01T02:11:55;22.25;;;11.80;;
34242;SDS011;20504;43.214;27.920;2023-03-01T02:14:21;17.63;;;11.00;;
34242;SDS011;20504;43.214;27.920;2023-03-01T02:16:46;21.20;;;11.37;;
34242;SDS011;20504;43.214;27.920;2023-03-01T02:19:22;18.52;;;11.30;;
34242;SDS011;20504;43.214;27.920;2023-03-01T02:27:11;19.03;;;12.20;;
34242;SDS011;20504;43.214;27.920;2023-03-01T02:29:37;20.52;;;12.20;;
34242;SDS011;20504;43.214;27.920;2023-03-01T02:32:03;18.08;;;12.13;;
34242;SDS011;20504;43.214;27.920;2023-03-01T02:34:30;18.55;;;12.55;;
34242;SDS011;20504;43.214;27.920;2023-03-01T02:37:02;21.65;;;12.40;;
34242;SDS011;20504;43.214;27.920;2023-03-01T02:39:34;22.52;;;12.50;;
34242;SDS011;20504;43.214;27.920;2023-03-01T02:42:07;20.63;;;12.60;;
34242;SDS011;20504;43.214;27.920;2023-03-01T02:44:40;24.30;;;12.68;;
34242;SDS011;20504;43.214;27.920;2023-03-01T02:47:05;18.10;;;11.80;;
34242;SDS011;20504;43.214;27.920;2023-03-01T02:49:32;22.60;;;13.43;;
34242;SDS011;20504;43.214;27.920;2023-03-01T02:57:28;21.42;;;13.18;;
34242;SDS011;20504;43.214;27.920;2023-03-01T02:59:56;17.77;;;12.05;;
34242;SDS011;20504;43.214;27.920;2023-03-01T03:02:25;26.67;;;14.35;;
34242;SDS011;20504;43.214;27.920;2023-03-01T03:05:09;24.73;;;13.85;;
34242;SDS011;20504;43.214;27.920;2023-03-01T03:10:08;25.03;;;14.03;;
34242;SDS011;20504;43.214;27.920;2023-03-01T03:12:38;24.48;;;14.23;;
34242;SDS011;20504;43.214;27.920;2023-03-01T03:15:05;28.38;;;14.65;;
34242;SDS011;20504;43.214;27.920;2023-03-01T03:17:36;26.73;;;15.43;;
34242;SDS011;20504;43.214;27.920;2023-03-01T03:20:04;23.52;;;15.18;;
34242;SDS011;20504;43.214;27.920;2023-03-01T03:22:31;24.67;;;15.00;;
34242;SDS011;20504;43.214;27.920;2023-03-01T03:24:59;25.17;;;16.65;;
34242;SDS011;20504;43.214;27.920;2023-03-01T03:27:25;31.35;;;16.60;;
34242;SDS011;20504;43.214;27.920;2023-03-01T03:29:50;28.37;;;17.13;;
34242;SDS011;20504;43.214;27.920;2023-03-01T03:32:15;32.40;;;16.03;;
34242;SDS011;20504;43.214;27.920;2023-03-01T03:34:41;19.23;;;12.90;;
34242;SDS011;20504;43.214;27.920;2023-03-01T03:37:06;18.53;;;11.93;;
34242;SDS011;20504;43.214;27.920;2023-03-01T03:39:52;27.60;;;16.85;;
34242;SDS011;20504;43.214;27.920;2023-03-01T03:42:20;25.60;;;16.30;;
34242;SDS011;20504;43.214;27.920;2023-03-01T03:44:47;27.05;;;16.25;;
34242;SDS011;20504;43.214;27.920;2023-03-01T03:47:12;29.63;;;17.85;;
34242;SDS011;20504;43.214;27.920;2023-03-01T03:49:38;28.10;;;18.47;;
34242;SDS011;20504;43.214;27.920;2023-03-01T03:52:03;27.93;;;17.73;;
34242;SDS011;20504;43.214;27.920;2023-03-01T03:54:29;22.63;;;13.77;;
34242;SDS011;20504;43.214;27.920;2023-03-01T03:56:54;29.67;;;18.33;;
34242;SDS011;20504;43.214;27.920;2023-03-01T03:59:20;19.47;;;13.20;;
34242;SDS011;20504;43.214;27.920;2023-03-01T04:01:45;30.70;;;17.87;;
34242;SDS011;20504;43.214;27.920;2023-03-01T04:04:11;31.30;;;18.00;;
34242;SDS011;20504;43.214;27.920;2023-03-01T04:06:36;33.57;;;18.27;;
34242;SDS011;20504;43.214;27.920;2023-03-01T04:09:02;28.47;;;18.10;;
34242;SDS011;20504;43.214;27.920;2023-03-01T04:11:27;29.10;;;18.20;;
34242;SDS011;20504;43.214;27.920;2023-03-01T04:13:54;30.93;;;18.67;;
34242;SDS011;20504;43.214;27.920;2023-03-01T04:16:22;26.60;;;16.98;;
34242;SDS011;20504;43.214;27.920;2023-03-01T04:18:48;34.95;;;19.15;;
34242;SDS011;20504;43.214;27.920;2023-03-01T04:21:14;32.23;;;17.53;;
34242;SDS011;20504;43.214;27.920;2023-03-01T04:23:39;35.30;;;18.83;;
34242;SDS011;20504;43.214;27.920;2023-03-01T04:26:06;30.90;;;17.77;;
34242;SDS011;20504;43.214;27.920;2023-03-01T04:28:32;32.13;;;18.33;;
34242;SDS011;20504;43.214;27.920;2023-03-01T04:31:02;33.28;;;18.70;;
34242;SDS011;20504;43.214;27.920;2023-03-01T04:33:43;32.53;;;19.05;;
34242;SDS011;20504;43.214;27.920;2023-03-01T04:36:13;33.58;;;18.40;;
34242;SDS011;20504;43.214;27.920;2023-03-01T04:38:40;33.72;;;18.10;;
34242;SDS011;20504;43.214;27.920;2023-03-01T04:41:07;32.50;;;18.47;;
34242;SDS011;20504;43.214;27.920;2023-03-01T04:43:35;31.08;;;17.67;;
34242;SDS011;20504;43.214;27.920;2023-03-01T04:46:02;31.08;;;17.83;;
34242;SDS011;20504;43.214;27.920;2023-03-01T04:48:30;29.73;;;17.45;;
34242;SDS011;20504;43.214;27.920;2023-03-01T04:50:57;30.67;;;17.30;;
34242;SDS011;20504;43.214;27.920;2023-03-01T04:53:24;30.90;;;16.92;;
34242;SDS011;20504;43.214;27.920;2023-03-01T04:55:49;28.47;;;16.53;;
34242;SDS011;20504;43.214;27.920;2023-03-01T04:58:15;28.83;;;16.80;;
34242;SDS011;20504;43.214;27.920;2023-03-01T05:00:41;32.23;;;17.77;;
34242;SDS011;20504;43.214;27.920;2023-03-01T05:03:07;31.27;;;17.90;;
34242;SDS011;20504;43.214;27.920;2023-03-01T05:05:34;31.88;;;17.63;;
34242;SDS011;20504;43.214;27.920;2023-03-01T05:08:02;32.33;;;17.90;;
34242;SDS011;20504;43.214;27.920;2023-03-01T05:10:30;29.33;;;17.33;;
34242;SDS011;20504;43.214;27.920;2023-03-01T05:12:57;27.90;;;17.15;;
34242;SDS011;20504;43.214;27.920;2023-03-01T05:15:27;26.95;;;16.42;;
34242;SDS011;20504;43.214;27.920;2023-03-01T05:17:54;28.92;;;16.30;;
34242;SDS011;20504;43.214;27.920;2023-03-01T05:20:23;28.30;;;16.08;;
34242;SDS011;20504;43.214;27.920;2023-03-01T05:22:53;33.33;;;17.55;;
34242;SDS011;20504;43.214;27.920;2023-03-01T05:25:21;27.40;;;16.17;;
34242;SDS011;20504;43.214;27.920;2023-03-01T05:27:47;28.27;;;17.00;;
34242;SDS011;20504;43.214;27.920;2023-03-01T05:32:43;24.55;;;16.02;;
34242;SDS011;20504;43.214;27.920;2023-03-01T05:35:14;26.92;;;15.82;;
34242;SDS011;20504;43.214;27.920;2023-03-01T05:37:44;26.65;;;16.60;;
34242;SDS011;20504;43.214;27.920;2023-03-01T05:40:12;29.38;;;16.27;;
34242;SDS011;20504;43.214;27.920;2023-03-01T05:42:43;32.78;;;17.45;;
34242;SDS011;20504;43.214;27.920;2023-03-01T05:45:10;31.13;;;17.42;;
34242;SDS011;20504;43.214;27.920;2023-03-01T05:47:37;28.52;;;16.45;;
34242;SDS011;20504;43.214;27.920;2023-03-01T05:50:09;25.67;;;16.05;;
34242;SDS011;20504;43.214;27.920;2023-03-01T05:52:45;24.20;;;16.10;;
34242;SDS011;20504;43.214;27.920;2023-03-01T05:55:19;29.52;;;16.65;;
34242;SDS011;20504;43.214;27.920;2023-03-01T05:57:46;31.52;;;16.58;;
34242;SDS011;20504;43.214;27.920;2023-03-01T06:00:12;25.38;;;15.68;;
34242;SDS011;20504;43.214;27.920;2023-03-01T06:02:44;26.35;;;15.65;;
34242;SDS011;20504;43.214;27.920;2023-03-01T06:05:13;20.77;;;12.67;;
34242;SDS011;20504;43.214;27.920;2023-03-01T06:07:39;31.13;;;17.00;;
34242;SDS011;20504;43.214;27.920;2023-03-01T06:10:05;27.23;;;15.88;;
34242;SDS011;20504;43.214;27.920;2023-03-01T06:12:32;22.75;;;14.68;;
34242;SDS011;20504;43.214;27.920;2023-03-01T06:14:59;22.92;;;14.07;;
34242;SDS011;20504;43.214;27.920;2023-03-01T06:17:26;25.23;;;15.07;;
34242;SDS011;20504;43.214;27.920;2023-03-01T06:19:54;25.45;;;15.02;;
34242;SDS011;20504;43.214;27.920;2023-03-01T06:22:19;25.20;;;14.17;;
34242;SDS011;20504;43.214;27.920;2023-03-01T06:24:44;17.53;;;10.87;;
34242;SDS011;20504;43.214;27.920;2023-03-01T06:27:10;27.67;;;15.53;;
34242;SDS011;20504;43.214;27.920;2023-03-01T06:29:35;27.20;;;15.50;;
34242;SDS011;20504;43.214;27.920;2023-03-01T06:32:02;30.13;;;15.77;;
34242;SDS011;20504;43.214;27.920;2023-03-01T06:36:53;26.45;;;15.95;;
34242;SDS011;20504;43.214;27.920;2023-03-01T06:39:18;27.63;;;16.30;;
34242;SDS011;20504;43.214;27.920;2023-03-01T06:41:44;24.93;;;15.17;;
34242;SDS011;20504;43.214;27.920;2023-03-01T06:44:10;25.00;;;16.13;;
34242;SDS011;20504;43.214;27.920;2023-03-01T06:46:35;24.30;;;14.67;;
34242;SDS011;20504;43.214;27.920;2023-03-01T06:49:01;24.93;;;15.90;;
34242;SDS011;20504;43.214;27.920;2023-03-01T06:51:29;29.00;;;16.05;;
34242;SDS011;20504;43.214;27.920;2023-03-01T06:53:55;28.43;;;17.27;;
34242;SDS011;20504;43.214;27.920;2023-03-01T06:56:20;26.33;;;16.37;;
34242;SDS011;20504;43.214;27.920;2023-03-01T06:58:46;26.47;;;16.97;;
34242;SDS011;20504;43.214;27.920;2023-03-01T07:01:11;30.27;;;17.20;;
34242;SDS011;20504;43.214;27.920;2023-03-01T07:03:37;28.23;;;17.67;;
34242;SDS011;20504;43.214;27.920;2023-03-01T07:06:02;27.40;;;15.80;;
34242;SDS011;20504;43.214;27.920;2023-03-01T07:08:28;29.17;;;17.27;;
34242;SDS011;20504;43.214;27.920;2023-03-01T07:10:58;38.17;;;19.30;;
34242;SDS011;20504;43.214;27.920;2023-03-01T07:13:24;30.85;;;17.73;;
34242;SDS011;20504;43.214;27.920;2023-03-01T07:15:50;28.67;;;17.60;;
34242;SDS011;20504;43.214;27.920;2023-03-01T07:18:15;34.27;;;19.07;;
34242;SDS011;20504;43.214;27.920;2023-03-01T07:20:41;32.27;;;19.57;;
34242;SDS011;20504;43.214;27.920;2023-03-01T07:23:06;20.50;;;13.73;;
34242;SDS011;20504;43.214;27.920;2023-03-01T07:25:32;30.77;;;17.37;;
34242;SDS011;20504;43.214;27.920;2023-03-01T07:27:58;23.73;;;13.38;;
34242;SDS011;20504;43.214;27.920;2023-03-01T07:30:23;24.60;;;14.23;;
34242;SDS011;20504;43.214;27.920;2023-03-01T07:32:52;31.02;;;18.02;;
34242;SDS011;20504;43.214;27.920;2023-03-01T07:35:18;31.77;;;17.08;;
34242;SDS011;20504;43.214;27.920;2023-03-01T07:37:43;31.60;;;18.57;;
34242;SDS011;20504;43.214;27.920;2023-03-01T07:40:09;26.40;;;15.77;;
34242;SDS011;20504;43.214;27.920;2023-03-01T07:42:35;32.63;;;18.77;;
34242;SDS011;20504;43.214;27.920;2023-03-01T07:45:01;24.93;;;13.47;;
34242;SDS011;20504;43.214;27.920;2023-03-01T07:47:26;29.63;;;17.83;;
34242;SDS011;20504;43.214;27.920;2023-03-01T07:49:51;22.87;;;13.70;;
34242;SDS011;20504;43.214;27.920;2023-03-01T07:52:17;27.57;;;17.77;;
34242;SDS011;20504;43.214;27.920;2023-03-01T07:54:43;33.50;;;18.13;;
34242;SDS011;20504;43.214;27.920;2023-03-01T07:57:11;32.75;;;18.77;;
34242;SDS011;20504;43.214;27.920;2023-03-01T07:59:36;33.30;;;19.30;;
34242;SDS011;20504;43.214;27.920;2023-03-01T08:02:02;38.77;;;21.03;;
34242;SDS011;20504;43.214;27.920;2023-03-01T08:04:27;33.77;;;18.93;;
34242;SDS011;20504;43.214;27.920;2023-03-01T08:06:54;35.30;;;18.77;;
34242;SDS011;20504;43.214;27.920;2023-03-01T08:09:20;34.80;;;18.77;;
34242;SDS011;20504;43.214;27.920;2023-03-01T08:11:46;29.37;;;18.80;;
34242;SDS011;20504;43.214;27.920;2023-03-01T08:14:15;30.98;;;17.75;;
34242;SDS011;20504;43.214;27.920;2023-03-01T08:16:40;31.57;;;18.77;;
34242;SDS011;20504;43.214;27.920;2023-03-01T08:19:10;23.23;;;13.40;;
34242;SDS011;20504;43.214;27.920;2023-03-01T08:21:37;30.90;;;19.20;;
34242;SDS011;20504;43.214;27.920;2023-03-01T08:24:03;39.95;;;20.00;;
34242;SDS011;20504;43.214;27.920;2023-03-01T08:26:31;34.58;;;19.15;;
34242;SDS011;20504;43.214;27.920;2023-03-01T08:31:36;36.85;;;19.45;;
34242;SDS011;20504;43.214;27.920;2023-03-01T08:34:04;30.30;;;17.63;;
34242;SDS011;20504;43.214;27.920;2023-03-01T08:36:32;31.77;;;18.23;;
34242;SDS011;20504;43.214;27.920;2023-03-01T08:39:02;29.50;;;17.83;;
34242;SDS011;20504;43.214;27.920;2023-03-01T08:41:29;46.72;;;27.88;;
34242;SDS011;20504;43.214;27.920;2023-03-01T08:43:54;29.83;;;18.20;;
34242;SDS011;20504;43.214;27.920;2023-03-01T08:46:24;29.80;;;17.35;;
34242;SDS011;20504;43.214;27.920;2023-03-01T08:48:53;31.30;;;18.30;;
34242;SDS011;20504;43.214;27.920;2023-03-01T08:51:21;28.50;;;17.57;;
34242;SDS011;20504;43.214;27.920;2023-03-01T08:53:48;29.35;;;16.90;;
34242;SDS011;20504;43.214;27.920;2023-03-01T08:56:14;30.20;;;18.27;;
34242;SDS011;20504;43.214;27.920;2023-03-01T08:58:43;27.45;;;17.13;;
34242;SDS011;20504;43.214;27.920;2023-03-01T09:01:10;32.20;;;17.00;;
34242;SDS011;20504;43.214;27.920;2023-03-01T09:03:38;33.05;;;18.90;;
34242;SDS011;20504;43.214;27.920;2023-03-01T09:06:04;31.80;;;18.87;;
34242;SDS011;20504;43.214;27.920;2023-03-01T09:08:34;34.35;;;18.70;;
34242;SDS011;20504;43.214;27.920;2023-03-01T09:11:02;36.85;;;20.23;;
34242;SDS011;20504;43.214;27.920;2023-03-01T09:13:28;31.50;;;19.15;;
34242;SDS011;20504;43.214;27.920;2023-03-01T09:15:56;33.00;;;19.80;;
34242;SDS011;20504;43.214;27.920;2023-03-01T09:18:22;35.80;;;19.75;;
34242;SDS011;20504;43.214;27.920;2023-03-01T09:20:47;32.67;;;19.07;;
34242;SDS011;20504;43.214;27.920;2023-03-01T09:23:13;36.53;;;21.00;;
34242;SDS011;20504;43.214;27.920;2023-03-01T09:25:38;39.10;;;20.80;;
34242;SDS011;20504;43.214;27.920;2023-03-01T09:28:04;34.63;;;21.20;;
34242;SDS011;20504;43.214;27.920;2023-03-01T09:30:29;39.53;;;21.83;;
34242;SDS011;20504;43.214;27.920;2023-03-01T09:32:56;37.03;;;21.40;;
34242;SDS011;20504;43.214;27.920;2023-03-01T09:35:22;36.60;;;20.92;;
34242;SDS011;20504;43.214;27.920;2023-03-01T09:37:48;35.40;;;21.48;;
34242;SDS011;20504;43.214;27.920;2023-03-01T09:40:19;37.45;;;23.42;;
34242;SDS011;20504;43.214;27.920;2023-03-01T09:42:50;45.80;;;23.17;;
34242;SDS011;20504;43.214;27.920;2023-03-01T09:45:23;42.53;;;23.27;;
34242;SDS011;20504;43.214;27.920;2023-03-01T09:47:53;37.83;;;22.67;;
34242;SDS011;20504;43.214;27.920;2023-03-01T09:50:20;33.67;;;21.80;;
34242;SDS011;20504;43.214;27.920;2023-03-01T09:52:48;38.83;;;20.52;;
34242;SDS011;20504;43.214;27.920;2023-03-01T09:55:38;30.88;;;18.58;;
34242;SDS011;20504;43.214;27.920;2023-03-01T10:08:43;36.67;;;19.00;;
34242;SDS011;20504;43.214;27.920;2023-03-01T10:11:21;43.80;;;22.52;;
34242;SDS011;20504;43.214;27.920;2023-03-01T10:16:48;34.75;;;18.90;;
34242;SDS011;20504;43.214;27.920;2023-03-01T10:19:22;36.35;;;19.63;;
34242;SDS011;20504;43.214;27.920;2023-03-01T10:21:52;27.50;;;17.35;;
34242;SDS011;20504;43.214;27.920;2023-03-01T10:24:18;26.77;;;17.43;;
34242;SDS011;20504;43.214;27.920;2023-03-01T10:26:55;32.30;;;17.45;;
34242;SDS011;20504;43.214;27.920;2023-03-01T10:29:25;28.73;;;16.52;;
34242;SDS011;20504;43.214;27.920;2023-03-01T10:31:56;40.25;;;18.48;;
34242;SDS011;20504;43.214;27.920;2023-03-01T10:34:33;35.77;;;18.03;;
34242;SDS011;20504;43.214;27.920;2023-03-01T10:39:37;33.10;;;17.05;;
34242;SDS011;20504;43.214;27.920;2023-03-01T10:42:23;25.23;;;15.30;;
34242;SDS011;20504;43.214;27.920;2023-03-01T10:44:52;33.53;;;15.57;;
34242;SDS011;20504;43.214;27.920;2023-03-01T10:47:19;22.07;;;14.00;;
34242;SDS011;20504;43.214;27.920;2023-03-01T10:50:00;26.30;;;14.45;;
34242;SDS011;20504;43.214;27.920;2023-03-01T10:52:35;25.38;;;15.07;;
34242;SDS011;20504;43.214;27.920;2023-03-01T10:55:47;26.45;;;15.75;;
34242;SDS011;20504;43.214;27.920;2023-03-01T11:00:56;22.80;;;14.57;;
34242;SDS011;20504;43.214;27.920;2023-03-01T11:03:33;24.88;;;14.07;;
34242;SDS011;20504;43.214;27.920;2023-03-01T11:08:39;21.70;;;14.75;;
34242;SDS011;20504;43.214;27.920;2023-03-01T11:14:15;24.98;;;15.43;;
34242;SDS011;20504;43.214;27.920;2023-03-01T11:17:00;26.55;;;15.38;;
34242;SDS011;20504;43.214;27.920;2023-03-01T11:20:32;27.60;;;15.82;;
34242;SDS011;20504;43.214;27.920;2023-03-01T11:22:37;24.67;;;14.80;;
34242;SDS011;20504;43.214;27.920;2023-03-01T11:25:11;27.75;;;14.82;;
34242;SDS011;20504;43.214;27.920;2023-03-01T11:27:43;27.80;;;14.63;;
34242;SDS011;20504;43.214;27.920;2023-03-01T11:33:08;22.35;;;14.25;;
34242;SDS011;20504;43.214;27.920;2023-03-01T11:35:45;25.42;;;13.57;;
34242;SDS011;20504;43.214;27.920;2023-03-01T11:38:22;20.13;;;12.77;;
34242;SDS011;20504;43.214;27.920;2023-03-01T11:40:52;19.10;;;13.45;;
34242;SDS011;20504;43.214;27.920;2023-03-01T11:43:35;18.38;;;12.52;;
34242;SDS011;20504;43.214;27.920;2023-03-01T11:54:19;28.25;;;13.00;;
34242;SDS011;20504;43.214;27.920;2023-03-01T11:56:57;22.75;;;12.15;;
34242;SDS011;20504;43.214;27.920;2023-03-01T12:02:12;17.00;;;11.88;;
34242;SDS011;20504;43.214;27.920;2023-03-01T12:16:19;19.67;;;12.63;;
34242;SDS011;20504;43.214;27.920;2023-03-01T12:24:41;16.25;;;11.95;;
34242;SDS011;20504;43.214;27.920;2023-03-01T12:27:23;19.15;;;11.43;;
34242;SDS011;20504;43.214;27.920;2023-03-01T12:30:30;22.02;;;12.93;;
34242;SDS011;20504;43.214;27.920;2023-03-01T12:39:41;18.50;;;12.00;;
34242;SDS011;20504;43.214;27.920;2023-03-01T12:41:47;20.48;;;11.57;;
34242;SDS011;20504;43.214;27.920;2023-03-01T12:47:05;24.58;;;13.98;;
34242;SDS011;20504;43.214;27.920;2023-03-01T12:49:59;18.40;;;12.38;;
34242;SDS011;20504;43.214;27.920;2023-03-01T12:54:53;18.37;;;10.93;;
34242;SDS011;20504;43.214;27.920;2023-03-01T12:57:26;16.58;;;10.68;;
34242;SDS011;20504;43.214;27.920;2023-03-01T13:00:17;13.98;;;9.77;;
34242;SDS011;20504;43.214;27.920;2023-03-01T13:03:15;18.23;;;10.13;;
34242;SDS011;20504;43.214;27.920;2023-03-01T13:11:27;19.47;;;10.53;;
34242;SDS011;20504;43.214;27.920;2023-03-01T13:14:08;16.48;;;10.07;;
34242;SDS011;20504;43.214;27.920;2023-03-01T13:16:53;17.75;;;9.35;;
34242;SDS011;20504;43.214;27.920;2023-03-01T13:19:20;15.15;;;9.60;;
34242;SDS011;20504;43.214;27.920;2023-03-01T13:21:48;16.80;;;9.57;;
34242;SDS011;20504;43.214;27.920;2023-03-01T13:24:28;18.48;;;10.70;;
34242;SDS011;20504;43.214;27.920;2023-03-01T13:32:35;14.60;;;9.40;;
34242;SDS011;20504;43.214;27.920;2023-03-01T13:37:40;14.27;;;9.10;;
34242;SDS011;20504;43.214;27.920;2023-03-01T13:42:42;17.73;;;9.95;;
34242;SDS011;20504;43.214;27.920;2023-03-01T13:45:15;21.13;;;11.98;;
34242;SDS011;20504;43.214;27.920;2023-03-01T13:47:44;21.33;;;11.55;;
34242;SDS011;20504;43.214;27.920;2023-03-01T13:50:18;18.55;;;9.88;;
34242;SDS011;20504;43.214;27.920;2023-03-01T13:52:48;17.55;;;9.80;;
34242;SDS011;20504;43.214;27.920;2023-03-01T13:55:20;17.42;;;10.68;;
34242;SDS011;20504;43.214;27.920;2023-03-01T13:57:57;18.42;;;10.45;;
34242;SDS011;20504;43.214;27.920;2023-03-01T14:03:01;14.75;;;9.65;;
34242;SDS011;20504;43.214;27.920;2023-03-01T14:05:27;14.10;;;10.50;;
34242;SDS011;20504;43.214;27.920;2023-03-01T14:07:53;22.23;;;10.82;;
34242;SDS011;20504;43.214;27.920;2023-03-01T14:10:19;21.53;;;11.10;;
34242;SDS011;20504;43.214;27.920;2023-03-01T14:12:48;25.03;;;13.10;;
34242;SDS011;20504;43.214;27.920;2023-03-01T14:20:33;26.88;;;13.75;;
34242;SDS011;20504;43.214;27.920;2023-03-01T14:23:09;25.42;;;12.15;;
34242;SDS011;20504;43.214;27.920;2023-03-01T14:25:37;20.98;;;11.57;;
34242;SDS011;20504;43.214;27.920;2023-03-01T14:28:10;15.45;;;9.15;;
34242;SDS011;20504;43.214;27.920;2023-03-01T14:30:42;22.65;;;11.65;;
34242;SDS011;20504;43.214;27.920;2023-03-01T14:33:19;17.77;;;12.90;;
34242;SDS011;20504;43.214;27.920;2023-03-01T14:38:22;21.13;;;13.23;;
34242;SDS011;20504;43.214;27.920;2023-03-01T14:40:55;24.35;;;12.98;;
34242;SDS011;20504;43.214;27.920;2023-03-01T14:43:23;23.35;;;13.30;;
34242;SDS011;20504;43.214;27.920;2023-03-01T14:45:51;22.52;;;13.15;;
34242;SDS011;20504;43.214;27.920;2023-03-01T14:48:17;19.07;;;13.47;;
34242;SDS011;20504;43.214;27.920;2023-03-01T14:53:22;27.95;;;12.88;;
34242;SDS011;20504;43.214;27.920;2023-03-01T14:56:00;20.88;;;12.25;;
34242;SDS011;20504;43.214;27.920;2023-03-01T14:58:31;23.05;;;13.93;;
34242;SDS011;20504;43.214;27.920;2023-03-01T15:00:59;21.63;;;14.02;;
34242;SDS011;20504;43.214;27.920;2023-03-01T15:03:30;26.10;;;12.63;;
34242;SDS011;20504;43.214;27.920;2023-03-01T15:06:02;32.53;;;13.77;;
34242;SDS011;20504;43.214;27.920;2023-03-01T15:08:29;19.40;;;12.80;;
34242;SDS011;20504;43.214;27.920;2023-03-01T15:11:01;19.02;;;11.45;;
34242;SDS011;20504;43.214;27.920;2023-03-01T15:13:33;20.15;;;11.52;;
34242;SDS011;20504;43.214;27.920;2023-03-01T15:16:07;21.83;;;11.25;;
34242;SDS011;20504;43.214;27.920;2023-03-01T15:18:34;17.63;;;11.15;;
34242;SDS011;20504;43.214;27.920;2023-03-01T15:21:08;21.98;;;11.50;;
34242;SDS011;20504;43.214;27.920;2023-03-01T15:23:55;18.80;;;11.18;;
34242;SDS011;20504;43.214;27.920;2023-03-01T15:26:43;17.23;;;11.23;;
34242;SDS011;20504;43.214;27.920;2023-03-01T15:29:16;19.10;;;11.38;;
34242;SDS011;20504;43.214;27.920;2023-03-01T15:31:52;19.50;;;11.55;;
34242;SDS011;20504;43.214;27.920;2023-03-01T15:34:24;21.83;;;12.23;;
34242;SDS011;20504;43.214;27.920;2023-03-01T15:36:55;20.30;;;12.43;;
34242;SDS011;20504;43.214;27.920;2023-03-01T15:39:30;25.65;;;15.50;;
34242;SDS011;20504;43.214;27.920;2023-03-01T15:42:02;25.10;;;14.88;;
34242;SDS011;20504;43.214;27.920;2023-03-01T15:44:31;22.50;;;13.70;;
34242;SDS011;20504;43.214;27.920;2023-03-01T15:46:58;23.83;;;13.80;;
34242;SDS011;20504;43.214;27.920;2023-03-01T15:49:40;27.27;;;15.90;;
34242;SDS011;20504;43.214;27.920;2023-03-01T15:52:12;20.35;;;12.90;;
34242;SDS011;20504;43.214;27.920;2023-03-01T15:54:42;20.95;;;12.20;;
34242;SDS011;20504;43.214;27.920;2023-03-01T15:57:14;19.77;;;11.27;;
34242;SDS011;20504;43.214;27.920;2023-03-01T15:59:40;22.08;;;12.90;;
34242;SDS011;20504;43.214;27.920;2023-03-01T16:02:10;21.25;;;13.23;;
34242;SDS011;20504;43.214;27.920;2023-03-01T16:04:39;23.15;;;12.77;;
34242;SDS011;20504;43.214;27.920;2023-03-01T16:07:04;25.37;;;15.60;;
34242;SDS011;20504;43.214;27.920;2023-03-01T16:09:30;29.90;;;15.25;;
34242;SDS011;20504;43.214;27.920;2023-03-01T16:11:55;26.13;;;14.60;;
34242;SDS011;20504;43.214;27.920;2023-03-01T16:14:21;27.40;;;14.10;;
34242;SDS011;20504;43.214;27.920;2023-03-01T16:16:47;29.23;;;15.00;;
34242;SDS011;20504;43.214;27.920;2023-03-01T16:19:13;22.00;;;13.23;;
34242;SDS011;20504;43.214;27.920;2023-03-01T16:21:39;25.98;;;14.48;;
34242;SDS011;20504;43.214;27.920;2023-03-01T16:24:07;26.45;;;15.50;;
34242;SDS011;20504;43.214;27.920;2023-03-01T16:26:33;32.10;;;15.05;;